sensor_id;sensor_type;location;lat;lon;timestamp;P1;durP1;ratioP1;P2;durP2;ratioP2
61407;SDS011;47274;43.054;25.146;2023-04-03T00:02:18;4.30;;;2.47;;
61407;SDS011;47274;43.054;25.146;2023-04-03T00:04:44;4.18;;;2.78;;
61407;SDS011;47274;43.054;25.146;2023-04-03T00:07:10;2.63;;;2.40;;
61407;SDS011;47274;43.054;25.146;2023-04-03T00:09:37;2.47;;;2.28;;
61407;SDS011;47274;43.054;25.146;2023-04-03T00:12:03;5.97;;;2.40;;
61407;SDS011;47274;43.054;25.146;2023-04-03T00:14:29;2.47;;;2.28;;
61407;SDS011;47274;43.054;25.146;2023-04-03T00:16:55;3.05;;;2.55;;
61407;SDS011;47274;43.054;25.146;2023-04-03T00:19:20;2.85;;;2.50;;
61407;SDS011;47274;43.054;25.146;2023-04-03T00:21:46;3.47;;;2.42;;
61407;SDS011;47274;43.054;25.146;2023-04-03T00:24:12;2.55;;;2.30;;
61407;SDS011;47274;43.054;25.146;2023-04-03T00:26:38;2.45;;;2.22;;
61407;SDS011;47274;43.054;25.146;2023-04-03T00:29:03;2.97;;;2.30;;
61407;SDS011;47274;43.054;25.146;2023-04-03T00:31:29;4.63;;;2.58;;
61407;SDS011;47274;43.054;25.146;2023-04-03T00:33:55;3.83;;;2.50;;
61407;SDS011;47274;43.054;25.146;2023-04-03T00:36:22;2.72;;;2.47;;
61407;SDS011;47274;43.054;25.146;2023-04-03T00:38:47;2.92;;;2.70;;
61407;SDS011;47274;43.054;25.146;2023-04-03T00:41:13;4.60;;;2.58;;
61407;SDS011;47274;43.054;25.146;2023-04-03T00:43:39;2.53;;;2.10;;
61407;SDS011;47274;43.054;25.146;2023-04-03T00:46:05;2.40;;;2.20;;
61407;SDS011;47274;43.054;25.146;2023-04-03T00:48:31;3.85;;;2.35;;
61407;SDS011;47274;43.054;25.146;2023-04-03T00:50:58;2.70;;;2.30;;
61407;SDS011;47274;43.054;25.146;2023-04-03T00:53:26;3.80;;;2.35;;
61407;SDS011;47274;43.054;25.146;2023-04-03T00:56:14;2.63;;;2.35;;
61407;SDS011;47274;43.054;25.146;2023-04-03T00:58:48;3.25;;;2.50;;
61407;SDS011;47274;43.054;25.146;2023-04-03T01:01:20;3.33;;;2.30;;
61407;SDS011;47274;43.054;25.146;2023-04-03T01:03:48;3.25;;;2.60;;
61407;SDS011;47274;43.054;25.146;2023-04-03T01:06:17;3.90;;;2.67;;
61407;SDS011;47274;43.054;25.146;2023-04-03T01:08:48;3.28;;;2.67;;
61407;SDS011;47274;43.054;25.146;2023-04-03T01:11:15;2.40;;;2.10;;
61407;SDS011;47274;43.054;25.146;2023-04-03T01:13:42;2.77;;;2.57;;
61407;SDS011;47274;43.054;25.146;2023-04-03T01:16:08;3.22;;;2.20;;
61407;SDS011;47274;43.054;25.146;2023-04-03T01:18:36;3.72;;;2.42;;
61407;SDS011;47274;43.054;25.146;2023-04-03T01:26:36;2.77;;;2.40;;
61407;SDS011;47274;43.054;25.146;2023-04-03T01:29:03;2.53;;;2.23;;
61407;SDS011;47274;43.054;25.146;2023-04-03T01:34:02;3.20;;;2.50;;
61407;SDS011;47274;43.054;25.146;2023-04-03T01:36:30;9.20;;;2.60;;
61407;SDS011;47274;43.054;25.146;2023-04-03T01:38:57;5.03;;;2.40;;
61407;SDS011;47274;43.054;25.146;2023-04-03T01:41:25;2.43;;;2.10;;
61407;SDS011;47274;43.054;25.146;2023-04-03T01:43:56;2.37;;;2.17;;
61407;SDS011;47274;43.054;25.146;2023-04-03T01:46:23;2.83;;;2.27;;
61407;SDS011;47274;43.054;25.146;2023-04-03T01:48:49;3.20;;;2.40;;
61407;SDS011;47274;43.054;25.146;2023-04-03T01:51:15;3.00;;;2.40;;
61407;SDS011;47274;43.054;25.146;2023-04-03T01:53:42;3.70;;;2.40;;
61407;SDS011;47274;43.054;25.146;2023-04-03T01:56:07;4.00;;;2.70;;
61407;SDS011;47274;43.054;25.146;2023-04-03T01:58:34;2.97;;;2.50;;
61407;SDS011;47274;43.054;25.146;2023-04-03T02:01:00;2.63;;;2.30;;
61407;SDS011;47274;43.054;25.146;2023-04-03T02:03:28;2.67;;;2.47;;
61407;SDS011;47274;43.054;25.146;2023-04-03T02:05:53;3.53;;;2.30;;
61407;SDS011;47274;43.054;25.146;2023-04-03T02:08:20;2.90;;;2.27;;
61407;SDS011;47274;43.054;25.146;2023-04-03T02:10:49;4.53;;;2.33;;
61407;SDS011;47274;43.054;25.146;2023-04-03T02:13:16;2.37;;;2.17;;
61407;SDS011;47274;43.054;25.146;2023-04-03T02:15:43;3.13;;;2.40;;
61407;SDS011;47274;43.054;25.146;2023-04-03T02:18:10;2.70;;;2.50;;
61407;SDS011;47274;43.054;25.146;2023-04-03T02:20:37;2.50;;;2.30;;
61407;SDS011;47274;43.054;25.146;2023-04-03T02:23:04;4.63;;;3.30;;
61407;SDS011;47274;43.054;25.146;2023-04-03T02:25:31;4.33;;;2.73;;
61407;SDS011;47274;43.054;25.146;2023-04-03T02:27:57;4.10;;;2.80;;
61407;SDS011;47274;43.054;25.146;2023-04-03T02:30:23;2.97;;;2.40;;
61407;SDS011;47274;43.054;25.146;2023-04-03T02:32:50;3.77;;;2.57;;
61407;SDS011;47274;43.054;25.146;2023-04-03T02:35:16;2.53;;;2.30;;
61407;SDS011;47274;43.054;25.146;2023-04-03T02:37:42;3.93;;;2.53;;
61407;SDS011;47274;43.054;25.146;2023-04-03T02:40:08;3.07;;;2.20;;
61407;SDS011;47274;43.054;25.146;2023-04-03T02:42:35;2.73;;;2.50;;
61407;SDS011;47274;43.054;25.146;2023-04-03T02:45:02;2.60;;;2.40;;
61407;SDS011;47274;43.054;25.146;2023-04-03T02:47:28;2.30;;;2.10;;
61407;SDS011;47274;43.054;25.146;2023-04-03T02:49:54;3.00;;;2.30;;
61407;SDS011;47274;43.054;25.146;2023-04-03T02:52:20;3.65;;;2.47;;
61407;SDS011;47274;43.054;25.146;2023-04-03T02:54:47;2.60;;;2.40;;
61407;SDS011;47274;43.054;25.146;2023-04-03T02:57:13;3.07;;;2.40;;
61407;SDS011;47274;43.054;25.146;2023-04-03T02:59:39;2.93;;;2.20;;
61407;SDS011;47274;43.054;25.146;2023-04-03T03:02:09;2.50;;;2.20;;
61407;SDS011;47274;43.054;25.146;2023-04-03T03:04:36;3.20;;;2.27;;
61407;SDS011;47274;43.054;25.146;2023-04-03T03:07:02;5.07;;;2.40;;
61407;SDS011;47274;43.054;25.146;2023-04-03T03:09:29;2.20;;;2.07;;
61407;SDS011;47274;43.054;25.146;2023-04-03T03:11:55;4.63;;;2.40;;
61407;SDS011;47274;43.054;25.146;2023-04-03T03:14:21;2.47;;;2.27;;
61407;SDS011;47274;43.054;25.146;2023-04-03T03:16:48;4.53;;;2.47;;
61407;SDS011;47274;43.054;25.146;2023-04-03T03:19:14;2.60;;;2.40;;
61407;SDS011;47274;43.054;25.146;2023-04-03T03:21:40;2.37;;;2.17;;
61407;SDS011;47274;43.054;25.146;2023-04-03T03:24:06;2.20;;;2.00;;
61407;SDS011;47274;43.054;25.146;2023-04-03T03:26:32;5.53;;;3.00;;
61407;SDS011;47274;43.054;25.146;2023-04-03T03:28:58;4.27;;;2.73;;
61407;SDS011;47274;43.054;25.146;2023-04-03T03:31:23;3.63;;;2.40;;
61407;SDS011;47274;43.054;25.146;2023-04-03T03:33:49;3.10;;;2.30;;
61407;SDS011;47274;43.054;25.146;2023-04-03T03:36:15;2.80;;;2.30;;
61407;SDS011;47274;43.054;25.146;2023-04-03T03:38:41;3.17;;;2.10;;
61407;SDS011;47274;43.054;25.146;2023-04-03T03:41:08;2.50;;;2.30;;
61407;SDS011;47274;43.054;25.146;2023-04-03T03:43:34;2.70;;;2.20;;
61407;SDS011;47274;43.054;25.146;2023-04-03T03:46:02;4.17;;;2.70;;
61407;SDS011;47274;43.054;25.146;2023-04-03T03:48:28;2.93;;;1.90;;
61407;SDS011;47274;43.054;25.146;2023-04-03T03:50:54;2.63;;;2.33;;
61407;SDS011;47274;43.054;25.146;2023-04-03T03:53:24;2.77;;;2.10;;
61407;SDS011;47274;43.054;25.146;2023-04-03T03:55:54;4.03;;;2.33;;
61407;SDS011;47274;43.054;25.146;2023-04-03T03:58:22;2.93;;;2.20;;
61407;SDS011;47274;43.054;25.146;2023-04-03T04:00:48;4.27;;;2.33;;
61407;SDS011;47274;43.054;25.146;2023-04-03T04:03:14;2.67;;;2.13;;
61407;SDS011;47274;43.054;25.146;2023-04-03T04:05:41;3.17;;;2.50;;
61407;SDS011;47274;43.054;25.146;2023-04-03T04:08:07;3.30;;;2.40;;
61407;SDS011;47274;43.054;25.146;2023-04-03T04:10:33;4.07;;;2.30;;
61407;SDS011;47274;43.054;25.146;2023-04-03T04:13:00;1.90;;;1.80;;
61407;SDS011;47274;43.054;25.146;2023-04-03T04:15:27;2.90;;;2.43;;
61407;SDS011;47274;43.054;25.146;2023-04-03T04:17:55;2.13;;;1.90;;
61407;SDS011;47274;43.054;25.146;2023-04-03T04:20:21;4.07;;;2.23;;
61407;SDS011;47274;43.054;25.146;2023-04-03T04:22:48;4.00;;;2.23;;
61407;SDS011;47274;43.054;25.146;2023-04-03T04:25:14;2.60;;;2.07;;
61407;SDS011;47274;43.054;25.146;2023-04-03T04:27:40;3.83;;;2.43;;
61407;SDS011;47274;43.054;25.146;2023-04-03T04:30:07;2.97;;;2.20;;
61407;SDS011;47274;43.054;25.146;2023-04-03T04:32:33;3.13;;;2.10;;
61407;SDS011;47274;43.054;25.146;2023-04-03T04:34:59;2.80;;;2.50;;
61407;SDS011;47274;43.054;25.146;2023-04-03T04:37:27;2.47;;;2.22;;
61407;SDS011;47274;43.054;25.146;2023-04-03T04:39:53;6.10;;;2.50;;
61407;SDS011;47274;43.054;25.146;2023-04-03T04:42:19;2.53;;;2.30;;
61407;SDS011;47274;43.054;25.146;2023-04-03T04:44:47;2.30;;;2.07;;
61407;SDS011;47274;43.054;25.146;2023-04-03T04:47:14;2.55;;;2.20;;
61407;SDS011;47274;43.054;25.146;2023-04-03T04:49:40;2.45;;;2.25;;
61407;SDS011;47274;43.054;25.146;2023-04-03T04:52:06;3.95;;;2.38;;
61407;SDS011;47274;43.054;25.146;2023-04-03T04:54:33;3.30;;;2.20;;
61407;SDS011;47274;43.054;25.146;2023-04-03T04:56:59;2.72;;;2.45;;
61407;SDS011;47274;43.054;25.146;2023-04-03T04:59:26;3.58;;;2.30;;
61407;SDS011;47274;43.054;25.146;2023-04-03T05:01:54;3.10;;;2.40;;
61407;SDS011;47274;43.054;25.146;2023-04-03T05:04:20;5.28;;;2.17;;
61407;SDS011;47274;43.054;25.146;2023-04-03T05:06:50;2.65;;;2.30;;
61407;SDS011;47274;43.054;25.146;2023-04-03T05:09:21;2.15;;;1.95;;
61407;SDS011;47274;43.054;25.146;2023-04-03T05:11:48;3.22;;;2.70;;
61407;SDS011;47274;43.054;25.146;2023-04-03T05:14:15;3.95;;;2.70;;
61407;SDS011;47274;43.054;25.146;2023-04-03T05:16:42;5.13;;;2.47;;
61407;SDS011;47274;43.054;25.146;2023-04-03T05:19:07;2.67;;;2.40;;
61407;SDS011;47274;43.054;25.146;2023-04-03T05:21:34;2.55;;;2.30;;
61407;SDS011;47274;43.054;25.146;2023-04-03T05:24:05;4.20;;;2.70;;
61407;SDS011;47274;43.054;25.146;2023-04-03T05:26:37;2.60;;;2.40;;
61407;SDS011;47274;43.054;25.146;2023-04-03T05:29:04;3.78;;;2.30;;
61407;SDS011;47274;43.054;25.146;2023-04-03T05:31:30;2.42;;;2.22;;
61407;SDS011;47274;43.054;25.146;2023-04-03T05:33:57;4.07;;;2.75;;
61407;SDS011;47274;43.054;25.146;2023-04-03T05:36:24;5.22;;;2.83;;
61407;SDS011;47274;43.054;25.146;2023-04-03T05:38:55;5.80;;;2.40;;
61407;SDS011;47274;43.054;25.146;2023-04-03T05:41:23;2.85;;;2.30;;
61407;SDS011;47274;43.054;25.146;2023-04-03T05:43:49;3.05;;;2.20;;
61407;SDS011;47274;43.054;25.146;2023-04-03T05:46:17;7.28;;;3.03;;
61407;SDS011;47274;43.054;25.146;2023-04-03T05:48:46;4.70;;;2.50;;
61407;SDS011;47274;43.054;25.146;2023-04-03T05:51:17;2.65;;;2.05;;
61407;SDS011;47274;43.054;25.146;2023-04-03T05:53:49;4.57;;;2.80;;
61407;SDS011;47274;43.054;25.146;2023-04-03T05:56:22;4.50;;;2.55;;
61407;SDS011;47274;43.054;25.146;2023-04-03T05:58:47;2.88;;;2.53;;
61407;SDS011;47274;43.054;25.146;2023-04-03T06:01:13;4.15;;;2.45;;
61407;SDS011;47274;43.054;25.146;2023-04-03T06:03:41;4.18;;;2.30;;
61407;SDS011;47274;43.054;25.146;2023-04-03T06:06:10;3.10;;;2.50;;
61407;SDS011;47274;43.054;25.146;2023-04-03T06:08:38;2.88;;;2.17;;
61407;SDS011;47274;43.054;25.146;2023-04-03T06:11:04;10.48;;;4.22;;
61407;SDS011;47274;43.054;25.146;2023-04-03T06:13:30;4.75;;;2.47;;
61407;SDS011;47274;43.054;25.146;2023-04-03T06:15:56;4.78;;;2.72;;
61407;SDS011;47274;43.054;25.146;2023-04-03T06:18:22;6.07;;;2.40;;
61407;SDS011;47274;43.054;25.146;2023-04-03T06:20:48;6.57;;;3.30;;
61407;SDS011;47274;43.054;25.146;2023-04-03T06:23:14;5.95;;;3.17;;
61407;SDS011;47274;43.054;25.146;2023-04-03T06:25:40;6.72;;;2.97;;
61407;SDS011;47274;43.054;25.146;2023-04-03T06:28:06;6.78;;;3.75;;
61407;SDS011;47274;43.054;25.146;2023-04-03T06:30:34;3.85;;;2.70;;
61407;SDS011;47274;43.054;25.146;2023-04-03T06:33:00;6.75;;;3.67;;
61407;SDS011;47274;43.054;25.146;2023-04-03T06:35:26;4.55;;;3.05;;
61407;SDS011;47274;43.054;25.146;2023-04-03T06:37:53;3.58;;;2.60;;
61407;SDS011;47274;43.054;25.146;2023-04-03T06:40:22;3.38;;;2.55;;
61407;SDS011;47274;43.054;25.146;2023-04-03T06:42:49;4.80;;;2.80;;
61407;SDS011;47274;43.054;25.146;2023-04-03T06:45:17;3.88;;;2.80;;
61407;SDS011;47274;43.054;25.146;2023-04-03T06:47:43;2.65;;;2.15;;
61407;SDS011;47274;43.054;25.146;2023-04-03T06:50:10;3.83;;;2.00;;
61407;SDS011;47274;43.054;25.146;2023-04-03T06:52:39;2.35;;;2.20;;
61407;SDS011;47274;43.054;25.146;2023-04-03T06:55:05;3.55;;;2.38;;
61407;SDS011;47274;43.054;25.146;2023-04-03T06:57:32;2.33;;;2.13;;
61407;SDS011;47274;43.054;25.146;2023-04-03T06:59:58;3.08;;;2.13;;
61407;SDS011;47274;43.054;25.146;2023-04-03T07:02:23;2.25;;;2.03;;
61407;SDS011;47274;43.054;25.146;2023-04-03T07:04:49;2.20;;;1.90;;
61407;SDS011;47274;43.054;25.146;2023-04-03T07:07:15;2.30;;;1.90;;
61407;SDS011;47274;43.054;25.146;2023-04-03T07:09:42;2.22;;;2.03;;
61407;SDS011;47274;43.054;25.146;2023-04-03T07:12:08;1.88;;;1.58;;
61407;SDS011;47274;43.054;25.146;2023-04-03T07:14:34;2.75;;;2.55;;
61407;SDS011;47274;43.054;25.146;2023-04-03T07:17:02;6.05;;;3.50;;
61407;SDS011;47274;43.054;25.146;2023-04-03T07:19:28;12.10;;;3.88;;
61407;SDS011;47274;43.054;25.146;2023-04-03T07:21:54;6.22;;;3.58;;
61407;SDS011;47274;43.054;25.146;2023-04-03T07:24:20;10.35;;;3.75;;
61407;SDS011;47274;43.054;25.146;2023-04-03T07:26:49;5.30;;;3.03;;
61407;SDS011;47274;43.054;25.146;2023-04-03T07:29:16;13.60;;;4.20;;
61407;SDS011;47274;43.054;25.146;2023-04-03T07:31:42;5.72;;;3.45;;
61407;SDS011;47274;43.054;25.146;2023-04-03T07:34:10;5.72;;;3.20;;
61407;SDS011;47274;43.054;25.146;2023-04-03T07:36:36;5.78;;;2.92;;
61407;SDS011;47274;43.054;25.146;2023-04-03T07:39:05;7.80;;;3.28;;
61407;SDS011;47274;43.054;25.146;2023-04-03T07:41:35;3.90;;;2.78;;
61407;SDS011;47274;43.054;25.146;2023-04-03T07:44:01;2.83;;;2.30;;
61407;SDS011;47274;43.054;25.146;2023-04-03T07:46:27;2.38;;;2.17;;
61407;SDS011;47274;43.054;25.146;2023-04-03T07:48:53;5.13;;;2.53;;
61407;SDS011;47274;43.054;25.146;2023-04-03T07:51:19;4.25;;;2.47;;
61407;SDS011;47274;43.054;25.146;2023-04-03T07:53:45;5.00;;;3.00;;
61407;SDS011;47274;43.054;25.146;2023-04-03T07:56:11;2.70;;;2.50;;
61407;SDS011;47274;43.054;25.146;2023-04-03T07:58:37;3.22;;;2.40;;
61407;SDS011;47274;43.054;25.146;2023-04-03T08:01:03;6.13;;;2.83;;
61407;SDS011;47274;43.054;25.146;2023-04-03T08:03:29;4.50;;;2.60;;
61407;SDS011;47274;43.054;25.146;2023-04-03T08:06:00;3.13;;;2.22;;
61407;SDS011;47274;43.054;25.146;2023-04-03T08:08:28;2.80;;;2.13;;
61407;SDS011;47274;43.054;25.146;2023-04-03T08:10:55;3.53;;;2.58;;
61407;SDS011;47274;43.054;25.146;2023-04-03T08:13:23;3.35;;;2.00;;
61407;SDS011;47274;43.054;25.146;2023-04-03T08:15:49;2.53;;;2.20;;
61407;SDS011;47274;43.054;25.146;2023-04-03T08:18:16;5.10;;;2.10;;
61407;SDS011;47274;43.054;25.146;2023-04-03T08:20:43;2.60;;;2.05;;
61407;SDS011;47274;43.054;25.146;2023-04-03T08:23:10;2.50;;;2.00;;
61407;SDS011;47274;43.054;25.146;2023-04-03T08:25:39;3.50;;;2.03;;
61407;SDS011;47274;43.054;25.146;2023-04-03T08:28:06;1.52;;;1.42;;
61407;SDS011;47274;43.054;25.146;2023-04-03T08:30:33;2.42;;;1.70;;
61407;SDS011;47274;43.054;25.146;2023-04-03T08:33:00;4.90;;;2.00;;
61407;SDS011;47274;43.054;25.146;2023-04-03T08:35:27;3.83;;;2.70;;
61407;SDS011;47274;43.054;25.146;2023-04-03T08:37:53;2.20;;;2.00;;
61407;SDS011;47274;43.054;25.146;2023-04-03T08:40:19;1.92;;;1.73;;
61407;SDS011;47274;43.054;25.146;2023-04-03T08:45:40;2.55;;;1.80;;
61407;SDS011;47274;43.054;25.146;2023-04-03T08:48:12;2.63;;;1.53;;
61407;SDS011;47274;43.054;25.146;2023-04-03T08:50:46;1.45;;;1.35;;
61407;SDS011;47274;43.054;25.146;2023-04-03T08:53:16;1.60;;;1.50;;
61407;SDS011;47274;43.054;25.146;2023-04-03T08:55:47;1.98;;;1.52;;
61407;SDS011;47274;43.054;25.146;2023-04-03T08:58:18;2.53;;;2.03;;
61407;SDS011;47274;43.054;25.146;2023-04-03T09:00:57;2.85;;;1.33;;
61407;SDS011;47274;43.054;25.146;2023-04-03T09:03:28;1.35;;;1.20;;
61407;SDS011;47274;43.054;25.146;2023-04-03T09:09:02;2.20;;;1.80;;
61407;SDS011;47274;43.054;25.146;2023-04-03T09:11:49;1.52;;;1.40;;
61407;SDS011;47274;43.054;25.146;2023-04-03T09:14:46;3.50;;;1.50;;
61407;SDS011;47274;43.054;25.146;2023-04-03T09:17:21;2.22;;;1.30;;
61407;SDS011;47274;43.054;25.146;2023-04-03T09:23:11;2.55;;;1.35;;
61407;SDS011;47274;43.054;25.146;2023-04-03T09:25:42;1.83;;;1.60;;
61407;SDS011;47274;43.054;25.146;2023-04-03T09:28:09;2.10;;;1.90;;
61407;SDS011;47274;43.054;25.146;2023-04-03T09:30:35;5.30;;;2.10;;
61407;SDS011;47274;43.054;25.146;2023-04-03T09:33:02;3.35;;;1.92;;
61407;SDS011;47274;43.054;25.146;2023-04-03T09:35:32;3.17;;;1.77;;
61407;SDS011;47274;43.054;25.146;2023-04-03T09:40:39;1.67;;;1.58;;
61407;SDS011;47274;43.054;25.146;2023-04-03T09:45:51;2.45;;;1.73;;
61407;SDS011;47274;43.054;25.146;2023-04-03T09:48:19;1.55;;;1.40;;
61407;SDS011;47274;43.054;25.146;2023-04-03T09:53:27;1.90;;;1.63;;
61407;SDS011;47274;43.054;25.146;2023-04-03T09:56:01;2.03;;;1.83;;
61407;SDS011;47274;43.054;25.146;2023-04-03T10:04:04;2.45;;;1.83;;
61407;SDS011;47274;43.054;25.146;2023-04-03T10:06:31;5.88;;;1.63;;
61407;SDS011;47274;43.054;25.146;2023-04-03T10:08:59;2.28;;;1.80;;
61407;SDS011;47274;43.054;25.146;2023-04-03T10:11:29;2.50;;;1.60;;
61407;SDS011;47274;43.054;25.146;2023-04-03T10:13:59;2.95;;;1.60;;
61407;SDS011;47274;43.054;25.146;2023-04-03T10:16:34;4.53;;;1.98;;
61407;SDS011;47274;43.054;25.146;2023-04-03T10:21:58;1.88;;;1.45;;
61407;SDS011;47274;43.054;25.146;2023-04-03T10:24:33;1.95;;;1.52;;
61407;SDS011;47274;43.054;25.146;2023-04-03T10:32:47;2.08;;;1.38;;
61407;SDS011;47274;43.054;25.146;2023-04-03T10:35:44;4.05;;;1.67;;
61407;SDS011;47274;43.054;25.146;2023-04-03T10:38:41;3.00;;;1.40;;
61407;SDS011;47274;43.054;25.146;2023-04-03T10:41:24;1.73;;;1.60;;
61407;SDS011;47274;43.054;25.146;2023-04-03T10:44:14;4.97;;;2.95;;
61407;SDS011;47274;43.054;25.146;2023-04-03T10:46:49;2.60;;;2.05;;
61407;SDS011;47274;43.054;25.146;2023-04-03T10:52:20;2.08;;;1.50;;
61407;SDS011;47274;43.054;25.146;2023-04-03T10:54:58;2.45;;;1.70;;
61407;SDS011;47274;43.054;25.146;2023-04-03T10:57:29;2.42;;;1.88;;
61407;SDS011;47274;43.054;25.146;2023-04-03T11:00:03;1.98;;;1.77;;
61407;SDS011;47274;43.054;25.146;2023-04-03T11:02:40;5.35;;;2.17;;
61407;SDS011;47274;43.054;25.146;2023-04-03T11:05:18;3.50;;;2.25;;
61407;SDS011;47274;43.054;25.146;2023-04-03T11:07:55;2.50;;;1.90;;
61407;SDS011;47274;43.054;25.146;2023-04-03T11:10:48;1.90;;;1.45;;
61407;SDS011;47274;43.054;25.146;2023-04-03T11:13:22;1.48;;;1.35;;
61407;SDS011;47274;43.054;25.146;2023-04-03T11:15:56;2.35;;;1.98;;
61407;SDS011;47274;43.054;25.146;2023-04-03T11:18:38;2.10;;;1.90;;
61407;SDS011;47274;43.054;25.146;2023-04-03T11:21:24;3.03;;;1.90;;
61407;SDS011;47274;43.054;25.146;2023-04-03T11:23:56;3.88;;;1.98;;
61407;SDS011;47274;43.054;25.146;2023-04-03T11:26:29;1.70;;;1.55;;
61407;SDS011;47274;43.054;25.146;2023-04-03T11:29:03;2.70;;;1.73;;
61407;SDS011;47274;43.054;25.146;2023-04-03T11:31:36;3.00;;;1.60;;
61407;SDS011;47274;43.054;25.146;2023-04-03T11:36:54;3.55;;;1.75;;
61407;SDS011;47274;43.054;25.146;2023-04-03T11:39:31;2.17;;;1.90;;
61407;SDS011;47274;43.054;25.146;2023-04-03T11:47:51;4.97;;;3.03;;
61407;SDS011;47274;43.054;25.146;2023-04-03T11:58:16;8.90;;;2.60;;
61407;SDS011;47274;43.054;25.146;2023-04-03T12:01:04;5.03;;;2.50;;
61407;SDS011;47274;43.054;25.146;2023-04-03T12:18:55;4.25;;;2.70;;
61407;SDS011;47274;43.054;25.146;2023-04-03T12:23:57;4.93;;;3.00;;
61407;SDS011;47274;43.054;25.146;2023-04-03T12:28:57;7.28;;;3.10;;
61407;SDS011;47274;43.054;25.146;2023-04-03T12:31:25;3.83;;;2.97;;
61407;SDS011;47274;43.054;25.146;2023-04-03T12:34:30;4.15;;;2.58;;
61407;SDS011;47274;43.054;25.146;2023-04-03T12:37:07;3.53;;;2.58;;
61407;SDS011;47274;43.054;25.146;2023-04-03T12:45:23;10.60;;;4.20;;
61407;SDS011;47274;43.054;25.146;2023-04-03T12:47:52;14.48;;;5.18;;
61407;SDS011;47274;43.054;25.146;2023-04-03T12:50:23;7.75;;;3.50;;
61407;SDS011;47274;43.054;25.146;2023-04-03T12:53:06;7.20;;;3.95;;
61407;SDS011;47274;43.054;25.146;2023-04-03T12:55:37;6.95;;;3.53;;
61407;SDS011;47274;43.054;25.146;2023-04-03T13:03:42;8.45;;;3.92;;
61407;SDS011;47274;43.054;25.146;2023-04-03T13:06:10;7.88;;;3.67;;
61407;SDS011;47274;43.054;25.146;2023-04-03T13:08:49;6.88;;;3.08;;
61407;SDS011;47274;43.054;25.146;2023-04-03T13:11:17;8.52;;;3.50;;
61407;SDS011;47274;43.054;25.146;2023-04-03T13:13:55;5.40;;;2.72;;
61407;SDS011;47274;43.054;25.146;2023-04-03T13:16:24;7.72;;;3.22;;
61407;SDS011;47274;43.054;25.146;2023-04-03T13:18:52;14.57;;;5.53;;
61407;SDS011;47274;43.054;25.146;2023-04-03T13:21:19;6.85;;;3.70;;
61407;SDS011;47274;43.054;25.146;2023-04-03T13:23:50;5.65;;;3.35;;
61407;SDS011;47274;43.054;25.146;2023-04-03T13:26:20;8.65;;;3.80;;
61407;SDS011;47274;43.054;25.146;2023-04-03T13:28:49;7.90;;;4.05;;
61407;SDS011;47274;43.054;25.146;2023-04-03T13:31:31;7.03;;;3.88;;
61407;SDS011;47274;43.054;25.146;2023-04-03T13:34:13;9.18;;;4.43;;
61407;SDS011;47274;43.054;25.146;2023-04-03T13:36:44;8.93;;;3.67;;
61407;SDS011;47274;43.054;25.146;2023-04-03T13:41:40;7.15;;;3.85;;
61407;SDS011;47274;43.054;25.146;2023-04-03T13:46:51;7.97;;;3.93;;
61407;SDS011;47274;43.054;25.146;2023-04-03T13:49:22;6.70;;;3.90;;
61407;SDS011;47274;43.054;25.146;2023-04-03T13:51:58;7.68;;;4.07;;
61407;SDS011;47274;43.054;25.146;2023-04-03T13:54:38;5.72;;;3.50;;
61407;SDS011;47274;43.054;25.146;2023-04-03T13:57:12;6.53;;;3.60;;
61407;SDS011;47274;43.054;25.146;2023-04-03T13:59:40;11.43;;;4.70;;
61407;SDS011;47274;43.054;25.146;2023-04-03T14:02:11;11.48;;;4.97;;
61407;SDS011;47274;43.054;25.146;2023-04-03T14:07:15;12.73;;;6.00;;
61407;SDS011;47274;43.054;25.146;2023-04-03T14:09:42;11.98;;;5.30;;
61407;SDS011;47274;43.054;25.146;2023-04-03T14:12:11;23.73;;;9.75;;
61407;SDS011;47274;43.054;25.146;2023-04-03T14:14:41;20.67;;;8.20;;
61407;SDS011;47274;43.054;25.146;2023-04-03T14:17:21;23.90;;;10.15;;
61407;SDS011;47274;43.054;25.146;2023-04-03T14:19:49;23.85;;;9.80;;
61407;SDS011;47274;43.054;25.146;2023-04-03T14:22:34;29.10;;;12.32;;
61407;SDS011;47274;43.054;25.146;2023-04-03T14:25:03;22.05;;;9.30;;
61407;SDS011;47274;43.054;25.146;2023-04-03T14:27:33;24.42;;;11.68;;
61407;SDS011;47274;43.054;25.146;2023-04-03T14:30:09;17.55;;;8.25;;
61407;SDS011;47274;43.054;25.146;2023-04-03T14:32:41;26.10;;;14.82;;
61407;SDS011;47274;43.054;25.146;2023-04-03T14:35:07;22.10;;;10.63;;
61407;SDS011;47274;43.054;25.146;2023-04-03T14:37:33;15.95;;;7.13;;
61407;SDS011;47274;43.054;25.146;2023-04-03T14:40:01;16.95;;;7.75;;
61407;SDS011;47274;43.054;25.146;2023-04-03T14:42:30;9.05;;;4.32;;
61407;SDS011;47274;43.054;25.146;2023-04-03T14:45:00;7.25;;;4.18;;
61407;SDS011;47274;43.054;25.146;2023-04-03T14:47:28;10.90;;;5.40;;
61407;SDS011;47274;43.054;25.146;2023-04-03T14:49:55;9.68;;;4.90;;
61407;SDS011;47274;43.054;25.146;2023-04-03T14:55:01;8.02;;;3.83;;
61407;SDS011;47274;43.054;25.146;2023-04-03T14:57:29;13.07;;;5.82;;
61407;SDS011;47274;43.054;25.146;2023-04-03T14:59:55;13.50;;;5.55;;
61407;SDS011;47274;43.054;25.146;2023-04-03T15:02:26;9.05;;;4.90;;
61407;SDS011;47274;43.054;25.146;2023-04-03T15:05:00;6.97;;;4.20;;
61407;SDS011;47274;43.054;25.146;2023-04-03T15:07:30;7.10;;;4.32;;
61407;SDS011;47274;43.054;25.146;2023-04-03T15:10:19;8.13;;;4.03;;
61407;SDS011;47274;43.054;25.146;2023-04-03T15:12:45;13.88;;;5.63;;
61407;SDS011;47274;43.054;25.146;2023-04-03T15:15:12;15.98;;;5.95;;
61407;SDS011;47274;43.054;25.146;2023-04-03T15:17:39;11.95;;;5.20;;
61407;SDS011;47274;43.054;25.146;2023-04-03T15:20:11;13.90;;;6.13;;
61407;SDS011;47274;43.054;25.146;2023-04-03T15:22:40;26.13;;;12.15;;
61407;SDS011;47274;43.054;25.146;2023-04-03T15:25:06;50.28;;;25.55;;
61407;SDS011;47274;43.054;25.146;2023-04-03T15:27:32;48.05;;;24.38;;
61407;SDS011;47274;43.054;25.146;2023-04-03T15:29:58;52.97;;;33.70;;
61407;SDS011;47274;43.054;25.146;2023-04-03T15:32:24;29.83;;;18.05;;
61407;SDS011;47274;43.054;25.146;2023-04-03T15:34:50;29.23;;;16.25;;
61407;SDS011;47274;43.054;25.146;2023-04-03T15:37:16;33.45;;;18.63;;
61407;SDS011;47274;43.054;25.146;2023-04-03T15:39:41;21.08;;;9.40;;
61407;SDS011;47274;43.054;25.146;2023-04-03T15:42:07;23.02;;;9.90;;
61407;SDS011;47274;43.054;25.146;2023-04-03T15:44:34;15.02;;;6.47;;
61407;SDS011;47274;43.054;25.146;2023-04-03T15:47:00;17.25;;;6.40;;
61407;SDS011;47274;43.054;25.146;2023-04-03T15:49:27;23.25;;;9.13;;
61407;SDS011;47274;43.054;25.146;2023-04-03T15:51:53;21.48;;;7.60;;
61407;SDS011;47274;43.054;25.146;2023-04-03T15:54:19;22.83;;;7.75;;
61407;SDS011;47274;43.054;25.146;2023-04-03T15:56:45;27.35;;;9.20;;
61407;SDS011;47274;43.054;25.146;2023-04-03T15:59:11;26.67;;;9.68;;
61407;SDS011;47274;43.054;25.146;2023-04-03T16:01:37;19.55;;;6.85;;
61407;SDS011;47274;43.054;25.146;2023-04-03T16:04:05;28.73;;;11.30;;
61407;SDS011;47274;43.054;25.146;2023-04-03T16:06:32;32.47;;;14.13;;
61407;SDS011;47274;43.054;25.146;2023-04-03T16:08:59;24.35;;;8.40;;
61407;SDS011;47274;43.054;25.146;2023-04-03T16:11:26;23.67;;;8.50;;
61407;SDS011;47274;43.054;25.146;2023-04-03T16:13:53;24.42;;;8.43;;
61407;SDS011;47274;43.054;25.146;2023-04-03T16:16:19;31.00;;;10.45;;
61407;SDS011;47274;43.054;25.146;2023-04-03T16:18:46;31.42;;;11.90;;
61407;SDS011;47274;43.054;25.146;2023-04-03T16:21:12;32.38;;;12.27;;
61407;SDS011;47274;43.054;25.146;2023-04-03T16:23:40;44.67;;;18.65;;